Time;durP1;ratioP1;P1;durP2;ratioP2;P2;SDS_P1;SDS_P2;PMS_P1;PMS_P2;Temp;Humidity;BMP_temperature;BMP_pressure;BME280_temperature;BME280_humidity;BME280_pressure;Samples;Min_cycle;Max_cycle;Signal;HPM_P1;HPM_P2
2023/12/04 00:00:36;;;;;;;9.30;6.27;;;4.10;1.00;;;;;;5034231;28;20630;-80
2023/12/04 00:03:01;;;;;;;9.73;6.80;;;4.10;1.00;;;;;;5034066;28;20185;-81
2023/12/04 00:05:27;;;;;;;11.10;7.27;;;4.00;1.00;;;;;;5033834;28;20239;-80
2023/12/04 00:07:53;;;;;;;11.30;7.27;;;4.10;1.00;;;;;;5033815;28;20579;-81
2023/12/04 00:10:18;;;;;;;9.17;6.23;;;4.10;1.00;;;;;;5035318;28;20557;-81
2023/12/04 00:12:44;;;;;;;11.10;7.07;;;4.20;1.00;;;;;;5034421;28;20195;-82
2023/12/04 00:15:10;;;;;;;10.73;6.37;;;4.00;1.00;;;;;;5034189;28;20172;-80
2023/12/04 00:17:39;;;;;;;11.13;7.03;;;4.00;1.00;;;;;;5033866;28;20269;-80
2023/12/04 00:20:07;;;;;;;9.33;6.50;;;4.00;1.00;;;;;;5033556;28;20197;-81
2023/12/04 00:22:33;;;;;;;10.40;6.97;;;4.00;1.00;;;;;;5033557;28;20185;-80
2023/12/04 00:24:58;;;;;;;11.20;7.53;;;4.10;1.00;;;;;;5032938;28;20224;-80
2023/12/04 00:27:26;;;;;;;9.30;6.37;;;4.10;1.00;;;;;;5033586;28;20273;-79
2023/12/04 00:29:55;;;;;;;9.80;6.83;;;4.00;1.00;;;;;;5031911;28;20173;-80
2023/12/04 00:32:21;;;;;;;9.83;6.23;;;4.00;1.00;;;;;;5031988;28;20181;-79
2023/12/04 00:34:47;;;;;;;9.27;6.20;;;4.10;1.00;;;;;;5034605;28;20173;-79
2023/12/04 00:37:13;;;;;;;8.70;6.07;;;3.90;1.00;;;;;;5033265;28;20165;-81
2023/12/04 00:39:38;;;;;;;8.27;6.10;;;4.10;1.00;;;;;;5034316;28;20583;-79
2023/12/04 00:42:04;;;;;;;9.33;6.37;;;4.10;1.00;;;;;;5033296;28;20649;-81
2023/12/04 00:44:30;;;;;;;9.30;6.43;;;4.00;1.00;;;;;;5031570;28;20166;-79
2023/12/04 00:46:56;;;;;;;9.60;6.63;;;4.10;1.00;;;;;;5033385;28;20227;-80
2023/12/04 00:49:21;;;;;;;8.60;6.10;;;4.00;1.00;;;;;;5032237;28;20174;-81
2023/12/04 00:51:47;;;;;;;8.17;5.83;;;4.10;1.00;;;;;;5032411;28;20173;-79
2023/12/04 00:54:13;;;;;;;9.23;6.43;;;4.00;1.00;;;;;;5033116;28;20189;-81
2023/12/04 00:56:41;;;;;;;9.87;6.20;;;4.00;1.00;;;;;;5034364;28;20600;-79
2023/12/04 00:59:10;;;;;;;9.00;6.43;;;4.10;1.00;;;;;;5033656;28;20212;-81
2023/12/04 01:01:39;;;;;;;8.83;5.93;;;4.10;1.00;;;;;;5032664;28;20213;-80
2023/12/04 01:04:04;;;;;;;9.43;6.20;;;4.10;1.00;;;;;;5032564;28;20169;-80
2023/12/04 01:06:30;;;;;;;8.70;5.97;;;4.30;1.00;;;;;;5031529;28;20962;-80
2023/12/04 01:08:56;;;;;;;8.03;6.10;;;4.20;1.00;;;;;;5033780;28;20664;-80
2023/12/04 01:11:23;;;;;;;12.33;6.20;;;4.20;1.00;;;;;;5033670;28;20287;-80
2023/12/04 01:13:49;;;;;;;9.13;6.23;;;4.30;1.00;;;;;;5032730;28;20174;-81
2023/12/04 01:16:15;;;;;;;8.23;6.17;;;4.30;1.00;;;;;;5034059;28;20307;-80
2023/12/04 01:18:41;;;;;;;11.30;6.13;;;4.40;1.00;;;;;;5033427;28;20173;-80
2023/12/04 01:21:11;;;;;;;9.03;6.03;;;4.40;1.00;;;;;;5032262;28;20213;-80
2023/12/04 01:23:37;;;;;;;8.77;5.90;;;4.30;1.00;;;;;;5031906;28;20170;-80
2023/12/04 01:26:05;;;;;;;9.37;6.20;;;4.30;1.00;;;;;;5034068;28;20191;-80
2023/12/04 01:28:31;;;;;;;9.27;5.73;;;4.30;1.00;;;;;;5033119;28;20193;-80
2023/12/04 01:30:57;;;;;;;8.97;6.30;;;4.30;1.00;;;;;;5031829;28;20252;-79
2023/12/04 01:33:22;;;;;;;8.90;6.17;;;4.30;1.00;;;;;;5032420;28;20721;-81
2023/12/04 01:35:48;;;;;;;8.17;5.70;;;4.30;1.00;;;;;;5033418;28;20519;-81
2023/12/04 01:38:14;;;;;;;7.67;5.60;;;4.20;1.00;;;;;;5031725;28;20182;-80
2023/12/04 01:40:39;;;;;;;6.77;5.13;;;4.20;1.00;;;;;;5032067;28;20220;-80
2023/12/04 01:43:05;;;;;;;8.53;5.33;;;4.30;1.00;;;;;;5031892;28;20205;-80
2023/12/04 01:45:31;;;;;;;8.23;5.40;;;4.30;1.00;;;;;;5031872;28;20236;-80
2023/12/04 01:47:58;;;;;;;7.70;5.27;;;4.30;1.00;;;;;;5033192;28;20181;-80
2023/12/04 01:50:24;;;;;;;6.87;4.80;;;4.40;1.00;;;;;;5032240;28;20169;-80
2023/12/04 01:52:53;;;;;;;8.57;5.97;;;4.30;1.00;;;;;;5033692;28;20182;-82
2023/12/04 01:55:19;;;;;;;8.90;5.63;;;4.30;1.00;;;;;;5032759;28;20256;-79
2023/12/04 01:57:45;;;;;;;8.37;5.77;;;4.40;1.00;;;;;;5031851;28;20180;-80
2023/12/04 02:00:12;;;;;;;8.33;5.40;;;4.30;1.00;;;;;;5030545;28;20197;-80
2023/12/04 02:02:39;;;;;;;7.40;5.27;;;4.30;1.00;;;;;;5032144;28;20170;-79
2023/12/04 02:05:10;;;;;;;7.43;4.70;;;4.40;1.00;;;;;;5031504;28;20181;-80
2023/12/04 02:07:36;;;;;;;6.63;4.83;;;4.40;1.00;;;;;;5031872;28;20181;-81
2023/12/04 02:10:03;;;;;;;7.87;4.87;;;4.40;1.00;;;;;;5031769;28;20212;-80
2023/12/04 02:12:29;;;;;;;6.67;5.00;;;4.40;1.00;;;;;;5033180;28;20179;-81
2023/12/04 02:14:55;;;;;;;6.80;4.60;;;4.30;1.00;;;;;;5031381;28;20223;-80
2023/12/04 02:17:22;;;;;;;7.80;5.00;;;4.30;1.00;;;;;;5030885;28;20181;-81
2023/12/04 02:19:48;;;;;;;7.17;4.73;;;4.30;1.00;;;;;;5032282;28;20208;-80
2023/12/04 02:22:14;;;;;;;6.43;4.57;;;4.40;1.00;;;;;;5034726;28;20177;-79
2023/12/04 02:24:39;;;;;;;8.20;5.07;;;4.40;1.00;;;;;;5032364;28;20268;-79
2023/12/04 02:27:13;;;;;;;7.37;4.97;;;4.40;1.00;;;;;;5031405;28;20528;-80
2023/12/04 02:29:47;;;;;;;7.23;4.70;;;4.50;1.00;;;;;;5031291;28;20176;-79
2023/12/04 02:32:16;;;;;;;7.83;5.47;;;4.50;1.00;;;;;;5032644;28;20173;-79
2023/12/04 02:34:43;;;;;;;7.30;4.73;;;4.50;1.00;;;;;;5030874;28;20166;-79
2023/12/04 02:37:10;;;;;;;6.57;4.60;;;4.50;1.00;;;;;;5032745;28;20173;-81
2023/12/04 02:39:37;;;;;;;7.57;4.90;;;4.60;1.00;;;;;;5031571;28;20256;-81
2023/12/04 02:42:03;;;;;;;6.30;4.33;;;4.70;1.00;;;;;;5031387;28;20247;-81
2023/12/04 02:44:29;;;;;;;7.93;5.17;;;4.60;99.90;;;;;;5032133;28;20166;-80
2023/12/04 02:46:54;;;;;;;6.77;4.60;;;4.60;99.90;;;;;;5030737;28;20177;-80
2023/12/04 02:49:20;;;;;;;7.87;4.80;;;4.60;99.90;;;;;;5031232;28;20680;-80
2023/12/04 02:51:46;;;;;;;6.83;4.70;;;4.70;99.90;;;;;;5030777;28;20178;-79
2023/12/04 02:54:11;;;;;;;7.17;4.43;;;4.60;99.90;;;;;;5036409;28;20227;-80
2023/12/04 02:56:37;;;;;;;7.07;4.90;;;4.60;99.90;;;;;;5034187;28;20538;-80
2023/12/04 02:59:03;;;;;;;6.47;4.73;;;4.50;99.90;;;;;;5036438;28;20614;-79
2023/12/04 03:01:28;;;;;;;7.40;4.87;;;4.50;1.00;;;;;;5034513;28;20248;-81
2023/12/04 03:03:54;;;;;;;6.57;4.63;;;4.60;99.90;;;;;;5035197;28;20559;-80
2023/12/04 03:06:19;;;;;;;6.63;4.43;;;4.60;99.90;;;;;;5036220;28;20632;-80
2023/12/04 03:08:45;;;;;;;6.33;4.37;;;4.70;99.90;;;;;;5036116;28;20200;-81
2023/12/04 03:11:11;;;;;;;6.03;4.63;;;4.70;99.90;;;;;;5035078;28;20224;-80
2023/12/04 03:13:36;;;;;;;6.10;4.70;;;4.70;99.90;;;;;;5033481;28;20231;-79
2023/12/04 03:16:02;;;;;;;6.50;4.37;;;4.90;99.90;;;;;;5035475;28;20529;-80
2023/12/04 03:18:28;;;;;;;6.27;4.13;;;4.60;99.90;;;;;;5036077;28;20577;-80
2023/12/04 03:20:54;;;;;;;5.70;3.87;;;4.70;99.90;;;;;;5035781;28;20212;-79
2023/12/04 03:23:20;;;;;;;6.03;4.20;;;4.90;99.90;;;;;;5035610;28;20172;-81
2023/12/04 03:25:46;;;;;;;6.77;4.33;;;4.90;99.90;;;;;;5034925;28;20174;-79
2023/12/04 03:28:13;;;;;;;6.20;4.30;;;4.80;99.90;;;;;;5033663;28;20227;-80
2023/12/04 03:30:38;;;;;;;5.77;4.10;;;4.90;99.90;;;;;;5034915;28;20248;-80
2023/12/04 03:33:04;;;;;;;5.73;3.87;;;4.90;99.90;;;;;;5036047;28;20254;-80
2023/12/04 03:35:30;;;;;;;6.73;4.43;;;4.80;99.90;;;;;;5035595;28;20633;-80
2023/12/04 03:37:56;;;;;;;6.87;4.53;;;4.80;99.90;;;;;;5035956;28;20213;-80
2023/12/04 03:40:21;;;;;;;5.47;4.10;;;4.80;99.90;;;;;;5035187;28;20197;-79
2023/12/04 03:42:47;;;;;;;6.43;4.07;;;5.10;99.90;;;;;;5033471;28;20181;-79
2023/12/04 03:45:12;;;;;;;6.30;3.83;;;5.10;99.90;;;;;;5035972;28;20582;-79
2023/12/04 03:47:38;;;;;;;5.63;4.07;;;5.20;99.90;;;;;;5034130;28;20534;-79
2023/12/04 03:50:05;;;;;;;5.67;4.10;;;5.10;99.90;;;;;;5035034;28;20691;-80
2023/12/04 03:52:30;;;;;;;5.60;3.97;;;5.10;99.90;;;;;;5032518;28;20201;-79
2023/12/04 03:54:56;;;;;;;5.97;3.93;;;5.10;99.90;;;;;;5034404;28;20667;-81
2023/12/04 03:57:21;;;;;;;6.10;4.50;;;4.90;99.90;;;;;;5033788;28;20177;-80
2023/12/04 03:59:47;;;;;;;6.37;4.40;;;4.90;99.90;;;;;;5034840;28;20178;-80
2023/12/04 04:02:13;;;;;;;5.87;4.20;;;5.00;99.90;;;;;;5033795;28;20177;-80
2023/12/04 04:04:39;;;;;;;6.37;4.17;;;5.00;99.90;;;;;;5033699;28;20185;-80
2023/12/04 04:07:05;;;;;;;6.17;4.10;;;5.00;99.90;;;;;;5035107;28;20170;-78
2023/12/04 04:09:31;;;;;;;5.93;4.07;;;5.10;99.90;;;;;;5033087;28;20247;-79
2023/12/04 04:11:56;;;;;;;6.70;4.40;;;5.30;99.90;;;;;;5033118;28;20209;-79
2023/12/04 04:14:23;;;;;;;6.33;4.07;;;5.30;99.90;;;;;;5033993;28;20637;-79
2023/12/04 04:16:48;;;;;;;5.10;3.50;;;5.30;99.90;;;;;;5035278;28;20177;-79
2023/12/04 04:19:14;;;;;;;4.67;3.53;;;5.30;99.90;;;;;;5034232;28;20192;-79
2023/12/04 04:21:40;;;;;;;6.57;3.87;;;5.10;99.90;;;;;;5034808;28;20241;-79
2023/12/04 04:24:06;;;;;;;6.10;4.40;;;5.10;99.90;;;;;;5033956;28;20181;-80
2023/12/04 04:26:32;;;;;;;6.53;3.93;;;5.10;99.90;;;;;;5032708;28;20467;-80
2023/12/04 04:28:58;;;;;;;7.03;4.37;;;5.00;99.90;;;;;;5034446;28;20173;-80
2023/12/04 04:31:24;;;;;;;6.60;4.40;;;4.90;99.90;;;;;;5034712;28;20201;-79
2023/12/04 04:33:50;;;;;;;7.50;4.73;;;4.80;99.90;;;;;;5033332;28;20173;-79
2023/12/04 04:36:16;;;;;;;6.60;4.37;;;4.80;99.90;;;;;;5034457;28;20162;-79
2023/12/04 04:38:41;;;;;;;5.87;3.80;;;4.70;99.90;;;;;;5034947;28;20181;-79
2023/12/04 04:41:07;;;;;;;6.50;4.07;;;4.60;99.90;;;;;;5034302;28;20213;-80
2023/12/04 04:43:33;;;;;;;7.03;4.27;;;4.60;99.90;;;;;;5032301;28;20173;-80
2023/12/04 04:45:59;;;;;;;5.67;3.83;;;4.70;99.90;;;;;;5032198;28;20181;-80
2023/12/04 04:48:24;;;;;;;6.13;4.47;;;4.90;99.90;;;;;;5031225;28;20636;-80
2023/12/04 04:50:50;;;;;;;6.80;4.07;;;4.90;99.90;;;;;;5033559;28;20182;-80
2023/12/04 04:53:15;;;;;;;6.43;3.97;;;4.80;99.90;;;;;;5034282;28;20645;-80
2023/12/04 04:55:41;;;;;;;7.00;3.90;;;4.70;99.90;;;;;;5033622;28;20204;-81
2023/12/04 04:58:07;;;;;;;5.90;3.57;;;4.70;99.90;;;;;;5034358;28;20216;-79
2023/12/04 05:00:32;;;;;;;5.87;3.97;;;4.80;99.90;;;;;;5032521;28;20209;-80
2023/12/04 05:02:58;;;;;;;6.77;3.80;;;4.80;99.90;;;;;;5032073;28;20534;-80
2023/12/04 05:05:24;;;;;;;5.50;3.87;;;4.80;99.90;;;;;;5032068;28;20630;-80
2023/12/04 05:07:49;;;;;;;6.37;3.83;;;4.90;99.90;;;;;;5033806;28;20169;-80
2023/12/04 05:10:15;;;;;;;6.87;4.50;;;4.90;99.90;;;;;;5032519;28;20215;-81
2023/12/04 05:12:41;;;;;;;5.37;3.73;;;4.80;99.90;;;;;;5032665;28;20181;-80
2023/12/04 05:15:07;;;;;;;5.33;3.40;;;4.80;99.90;;;;;;5032313;28;20265;-81
2023/12/04 05:17:32;;;;;;;7.57;4.13;;;4.70;99.90;;;;;;5033721;28;20625;-80
2023/12/04 05:19:58;;;;;;;5.30;3.57;;;4.70;99.90;;;;;;5033954;28;20713;-80
2023/12/04 05:22:24;;;;;;;5.60;3.90;;;4.70;99.90;;;;;;5032885;28;20589;-80
2023/12/04 05:24:50;;;;;;;5.70;3.73;;;4.90;99.90;;;;;;5031315;28;20174;-79
2023/12/04 05:27:15;;;;;;;5.17;3.60;;;4.80;99.90;;;;;;5031844;28;20541;-80
2023/12/04 05:29:41;;;;;;;5.03;3.87;;;4.90;99.90;;;;;;5032122;28;20641;-80
2023/12/04 05:32:07;;;;;;;5.63;3.83;;;5.00;99.90;;;;;;5032786;28;20227;-79
2023/12/04 05:34:32;;;;;;;5.43;3.30;;;4.90;99.90;;;;;;5033127;28;20248;-79
2023/12/04 05:36:58;;;;;;;6.73;3.80;;;4.90;88.90;;;;;;5032262;28;20260;-79
2023/12/04 05:39:24;;;;;;;7.70;3.60;;;5.10;36.50;;;;;;5031840;28;20609;-79
2023/12/04 05:41:49;;;;;;;4.50;3.30;;;5.00;4.90;;;;;;5033053;28;20220;-79
2023/12/04 05:44:15;;;;;;;4.80;3.33;;;5.10;1.00;;;;;;5033446;28;20630;-80
2023/12/04 05:46:40;;;;;;;7.40;3.43;;;5.20;1.00;;;;;;5031978;28;20220;-80
2023/12/04 05:49:06;;;;;;;6.60;3.80;;;5.10;1.00;;;;;;5031070;28;20591;-79
2023/12/04 05:51:32;;;;;;;4.87;3.13;;;5.10;1.00;;;;;;5031376;28;20208;-79
2023/12/04 05:53:58;;;;;;;5.27;3.43;;;5.30;1.00;;;;;;5032929;28;20166;-80
2023/12/04 05:56:24;;;;;;;5.90;3.13;;;5.30;1.00;;;;;;5031425;28;20181;-80
2023/12/04 05:58:49;;;;;;;4.80;3.30;;;5.30;1.00;;;;;;5033438;28;20193;-80
2023/12/04 06:01:15;;;;;;;4.80;3.40;;;5.30;1.00;;;;;;5030236;28;20209;-79
2023/12/04 06:03:41;;;;;;;5.67;3.73;;;5.30;1.00;;;;;;5032855;28;20522;-80
2023/12/04 06:06:07;;;;;;;4.90;3.50;;;5.20;1.00;;;;;;5033019;28;20222;-81
2023/12/04 06:08:32;;;;;;;6.27;3.40;;;5.40;1.00;;;;;;5031317;28;20300;-81
2023/12/04 06:10:58;;;;;;;4.10;3.10;;;5.30;1.00;;;;;;5033177;28;20174;-79
2023/12/04 06:13:24;;;;;;;4.73;3.20;;;5.20;1.00;;;;;;5031673;28;20180;-81
2023/12/04 06:15:50;;;;;;;4.97;3.40;;;5.20;1.00;;;;;;5032464;28;20166;-81
2023/12/04 06:18:15;;;;;;;6.13;3.70;;;5.10;1.00;;;;;;5031341;28;20207;-80
2023/12/04 06:20:41;;;;;;;5.67;3.43;;;5.10;1.00;;;;;;5030688;28;20209;-79
2023/12/04 06:23:07;;;;;;;5.27;3.60;;;5.30;1.00;;;;;;5031377;28;20662;-82
2023/12/04 06:25:33;;;;;;;6.57;3.40;;;5.10;1.00;;;;;;5030678;28;20227;-80
2023/12/04 06:27:59;;;;;;;6.70;3.57;;;5.10;16.30;;;;;;5032456;28;20235;-80
2023/12/04 06:30:25;;;;;;;4.30;3.17;;;5.00;14.20;;;;;;5031575;28;20275;-82
2023/12/04 06:32:51;;;;;;;5.50;3.70;;;5.10;7.60;;;;;;5032439;28;20621;-80
2023/12/04 06:35:17;;;;;;;6.43;3.70;;;5.10;82.00;;;;;;5032232;28;20257;-80
2023/12/04 06:37:45;;;;;;;4.90;3.90;;;5.00;99.90;;;;;;5017432;28;20300;-80
2023/12/04 06:40:11;;;;;;;5.70;3.30;;;5.00;99.90;;;;;;5017987;28;20198;-80
2023/12/04 06:42:38;;;;;;;5.17;3.57;;;5.00;99.90;;;;;;5020043;28;20664;-81
2023/12/04 06:45:04;;;;;;;6.60;4.10;;;4.90;99.90;;;;;;5026720;28;20173;-81
2023/12/04 06:47:33;;;;;;;6.37;3.63;;;4.90;99.90;;;;;;5030451;28;20178;-81
2023/12/04 06:49:59;;;;;;;6.50;3.70;;;4.90;99.90;;;;;;5029942;28;20672;-81
2023/12/04 06:52:24;;;;;;;6.60;4.23;;;4.90;99.90;;;;;;5032072;28;20161;-82
2023/12/04 06:54:50;;;;;;;5.60;4.07;;;4.90;99.90;;;;;;5031368;28;20173;-81
2023/12/04 06:57:16;;;;;;;6.93;4.20;;;4.90;99.90;;;;;;5020718;28;20170;-80
2023/12/04 06:59:42;;;;;;;5.33;3.97;;;4.90;99.90;;;;;;5014209;28;20178;-81
2023/12/04 07:02:08;;;;;;;5.93;4.37;;;4.90;99.90;;;;;;5020647;28;20178;-83
2023/12/04 07:04:34;;;;;;;6.43;3.97;;;4.90;99.90;;;;;;5010613;28;20192;-81
2023/12/04 07:07:04;;;;;;;5.93;4.20;;;5.00;99.90;;;;;;5020171;28;20170;-80
2023/12/04 07:09:34;;;;;;;5.47;4.17;;;5.00;99.90;;;;;;5024622;28;20288;-80
2023/12/04 07:12:00;;;;;;;6.57;4.53;;;5.00;99.90;;;;;;5031451;28;20178;-81
2023/12/04 07:14:26;;;;;;;5.93;4.10;;;5.20;99.90;;;;;;5021088;28;20166;-82
2023/12/04 07:16:52;;;;;;;5.60;4.20;;;5.10;99.90;;;;;;5009885;28;20186;-80
2023/12/04 07:19:18;;;;;;;6.90;4.33;;;5.10;99.90;;;;;;5009934;28;20170;-80
2023/12/04 07:21:44;;;;;;;6.30;4.10;;;5.00;99.90;;;;;;5008457;28;20206;-81
2023/12/04 07:24:09;;;;;;;7.67;3.70;;;5.20;99.90;;;;;;5011429;28;20166;-79
2023/12/04 07:26:35;;;;;;;5.47;4.30;;;5.10;99.90;;;;;;5010749;28;20654;-80
2023/12/04 07:29:02;;;;;;;6.10;4.10;;;5.20;99.90;;;;;;5008980;28;20174;-80
2023/12/04 07:31:28;;;;;;;5.90;4.73;;;5.10;99.90;;;;;;5011078;28;20179;-81
2023/12/04 07:33:54;;;;;;;7.93;5.13;;;5.10;99.90;;;;;;5011037;28;20617;-80
2023/12/04 07:36:20;;;;;;;5.80;4.10;;;5.30;99.90;;;;;;5010945;28;20180;-82
2023/12/04 07:38:45;;;;;;;7.90;4.50;;;5.20;99.90;;;;;;5014466;28;20563;-80
2023/12/04 07:41:11;;;;;;;6.47;4.10;;;5.20;99.90;;;;;;5032378;28;20311;-81
2023/12/04 07:43:37;;;;;;;7.03;4.53;;;5.20;99.90;;;;;;5035387;28;20162;-81
2023/12/04 07:46:03;;;;;;;7.87;4.57;;;5.30;99.90;;;;;;5034499;28;20178;-80
2023/12/04 07:48:30;;;;;;;6.57;4.30;;;5.20;99.90;;;;;;5033979;28;20170;-80
2023/12/04 07:50:56;;;;;;;6.27;4.57;;;5.30;99.90;;;;;;5013932;28;20182;-81
2023/12/04 07:53:22;;;;;;;5.93;3.80;;;5.30;99.90;;;;;;5015841;28;20256;-81
2023/12/04 07:55:50;;;;;;;7.83;4.43;;;5.20;99.90;;;;;;5014298;28;20178;-83
2023/12/04 07:58:17;;;;;;;7.60;5.10;;;5.20;99.90;;;;;;5015778;28;20222;-81
2023/12/04 08:00:44;;;;;;;8.47;5.10;;;5.30;99.90;;;;;;5015414;28;20206;-80
2023/12/04 08:03:10;;;;;;;7.50;5.03;;;5.30;1.00;;;;;;5014997;28;20353;-80
2023/12/04 08:05:35;;;;;;;6.13;4.77;;;5.30;99.90;;;;;;5013703;28;20583;-83
2023/12/04 08:08:01;;;;;;;7.37;4.97;;;5.30;1.00;;;;;;5029831;28;20544;-82
2023/12/04 08:10:27;;;;;;;7.50;4.70;;;5.20;1.00;;;;;;5034781;28;20555;-80
2023/12/04 08:12:52;;;;;;;6.67;4.57;;;5.30;1.00;;;;;;5034363;28;20169;-80
2023/12/04 08:15:18;;;;;;;7.97;5.20;;;5.40;1.00;;;;;;5033414;28;20347;-80
2023/12/04 08:17:44;;;;;;;6.57;4.77;;;5.50;1.00;;;;;;5033361;28;20177;-80
2023/12/04 08:20:13;;;;;;;6.23;4.33;;;5.60;1.00;;;;;;5033474;28;20296;-81
2023/12/04 08:22:44;;;;;;;8.10;5.30;;;5.50;1.00;;;;;;5033395;28;20178;-80
2023/12/04 08:25:10;;;;;;;6.40;5.00;;;5.60;1.00;;;;;;5033792;28;20178;-81
2023/12/04 08:27:36;;;;;;;6.17;4.57;;;5.70;1.00;;;;;;5033747;28;20176;-81
2023/12/04 08:30:04;;;;;;;6.97;4.73;;;5.60;1.00;;;;;;5033537;28;20177;-81
2023/12/04 08:32:29;;;;;;;7.50;4.60;;;5.60;1.00;;;;;;5034165;28;20226;-80
2023/12/04 08:34:55;;;;;;;7.43;5.27;;;5.50;1.00;;;;;;5032836;28;20732;-81
2023/12/04 08:37:21;;;;;;;6.37;4.60;;;5.40;1.00;;;;;;5034466;28;20177;-80
2023/12/04 08:39:46;;;;;;;6.23;4.67;;;5.50;1.00;;;;;;5034280;28;20174;-83
2023/12/04 08:42:12;;;;;;;8.13;5.00;;;5.50;1.00;;;;;;5033073;28;20209;-80
2023/12/04 08:44:38;;;;;;;7.50;5.27;;;5.40;1.00;;;;;;5034603;28;20684;-80
2023/12/04 08:47:05;;;;;;;7.03;5.33;;;5.40;1.00;;;;;;5033087;28;20184;-82
2023/12/04 08:49:30;;;;;;;6.50;4.70;;;5.50;1.00;;;;;;5032315;28;20625;-80
2023/12/04 08:51:56;;;;;;;6.67;4.83;;;5.50;1.00;;;;;;5032665;28;20185;-80
2023/12/04 08:54:22;;;;;;;6.87;5.50;;;5.50;1.00;;;;;;5033285;28;20566;-81
2023/12/04 08:56:48;;;;;;;6.67;5.20;;;5.40;1.00;;;;;;5032970;28;20174;-80
2023/12/04 08:59:14;;;;;;;6.37;4.87;;;5.60;1.00;;;;;;5033005;28;20171;-80
2023/12/04 09:01:39;;;;;;;7.13;4.80;;;5.50;1.00;;;;;;5032843;28;20570;-82
2023/12/04 09:04:07;;;;;;;7.20;4.77;;;5.40;1.00;;;;;;5032939;28;20166;-81
2023/12/04 09:06:32;;;;;;;12.47;11.17;;;5.50;1.00;;;;;;5032639;28;20704;-81
2023/12/04 09:08:58;;;;;;;8.43;6.70;;;5.70;1.00;;;;;;5033569;28;20252;-81
2023/12/04 09:11:24;;;;;;;6.67;4.90;;;5.60;1.00;;;;;;5032745;28;20280;-79
2023/12/04 09:13:49;;;;;;;7.90;5.87;;;5.40;1.00;;;;;;5032853;28;20256;-80
2023/12/04 09:16:16;;;;;;;6.80;5.23;;;5.30;1.00;;;;;;5032333;28;20602;-80
2023/12/04 09:18:42;;;;;;;8.40;4.90;;;5.40;1.00;;;;;;5032234;28;20177;-81
2023/12/04 09:21:08;;;;;;;8.23;5.10;;;5.40;1.00;;;;;;5032303;28;20216;-82
2023/12/04 09:23:35;;;;;;;6.50;5.03;;;5.50;1.00;;;;;;5033577;28;20229;-80
2023/12/04 09:26:00;;;;;;;8.70;5.50;;;5.40;1.00;;;;;;5032575;28;20192;-82
2023/12/04 09:28:26;;;;;;;9.07;6.27;;;5.60;1.00;;;;;;5032140;28;20174;-80
2023/12/04 09:30:53;;;;;;;6.57;4.73;;;5.60;1.00;;;;;;5031960;28;20184;-81
2023/12/04 09:33:18;;;;;;;7.30;5.10;;;5.70;1.00;;;;;;5032252;28;20177;-80
2023/12/04 09:35:44;;;;;;;6.90;5.07;;;5.70;1.00;;;;;;5033864;28;20494;-81
2023/12/04 09:38:10;;;;;;;7.50;4.97;;;5.70;1.00;;;;;;5032137;28;20578;-80
2023/12/04 09:40:36;;;;;;;6.53;5.03;;;5.60;1.00;;;;;;5032074;28;20212;-81
2023/12/04 09:43:03;;;;;;;7.20;5.13;;;5.50;1.00;;;;;;5033319;28;20178;-79
2023/12/04 09:45:31;;;;;;;7.43;5.33;;;5.30;1.00;;;;;;5032059;28;20323;-81
2023/12/04 09:47:59;;;;;;;6.53;5.03;;;5.40;1.00;;;;;;5032079;28;20344;-81
2023/12/04 09:50:25;;;;;;;6.87;4.90;;;5.30;1.00;;;;;;5031776;28;20174;-80
2023/12/04 09:52:52;;;;;;;6.77;4.87;;;5.30;1.00;;;;;;5031938;28;20189;-81
2023/12/04 09:55:17;;;;;;;6.87;5.50;;;5.30;1.00;;;;;;5033190;28;20234;-80
2023/12/04 09:57:45;;;;;;;6.93;5.07;;;5.40;1.00;;;;;;5032181;28;20607;-80
2023/12/04 10:00:13;;;;;;;7.63;5.13;;;5.40;1.00;;;;;;5031003;28;20237;-81
2023/12/04 10:02:39;;;;;;;7.90;5.33;;;5.40;1.00;;;;;;5031309;28;20182;-81
2023/12/04 10:05:06;;;;;;;7.93;5.00;;;5.20;1.00;;;;;;5031591;28;20258;-82
2023/12/04 10:07:32;;;;;;;8.37;5.60;;;5.10;1.00;;;;;;5033114;28;20177;-81
2023/12/04 10:09:57;;;;;;;9.27;5.47;;;5.00;9.40;;;;;;5032294;28;20215;-80
2023/12/04 10:12:23;;;;;;;8.57;6.10;;;5.00;15.10;;;;;;5032858;28;20193;-81
2023/12/04 10:15:10;;;;;;;8.57;5.87;;;5.10;17.80;;;;;;5032482;28;20198;-81
2023/12/04 10:17:38;;;;;;;8.87;6.00;;;5.00;22.00;;;;;;5031316;28;20183;-81
2023/12/04 10:20:12;;;;;;;7.90;5.90;;;5.00;26.50;;;;;;5031476;28;20181;-81
2023/12/04 10:22:39;;;;;;;8.20;5.80;;;5.00;29.90;;;;;;5032629;28;20641;-80
2023/12/04 10:25:15;;;;;;;8.70;6.07;;;5.10;28.50;;;;;;5032670;28;20166;-81
2023/12/04 10:27:41;;;;;;;8.97;6.37;;;5.20;27.00;;;;;;5031103;28;20276;-81
2023/12/04 10:30:08;;;;;;;9.43;6.97;;;5.10;28.40;;;;;;5031274;28;20256;-81
2023/12/04 10:32:39;;;;;;;11.87;7.60;;;5.00;32.30;;;;;;5031842;28;20533;-81
2023/12/04 10:35:09;;;;;;;8.67;6.73;;;4.90;40.70;;;;;;5031134;28;20213;-81
2023/12/04 10:37:37;;;;;;;7.83;5.87;;;5.10;44.60;;;;;;5032561;28;20252;-81
2023/12/04 10:40:03;;;;;;;10.20;7.27;;;5.00;43.70;;;;;;5031036;28;20291;-81
2023/12/04 10:42:30;;;;;;;9.70;6.70;;;5.00;49.30;;;;;;5030993;28;20641;-81
2023/12/04 10:44:57;;;;;;;8.53;6.60;;;5.00;51.90;;;;;;5031008;28;20282;-81
2023/12/04 10:47:23;;;;;;;10.17;6.97;;;5.00;50.80;;;;;;5031214;28;20638;-80
2023/12/04 10:49:50;;;;;;;10.50;7.77;;;5.10;48.90;;;;;;5032344;28;20256;-81
2023/12/04 10:52:19;;;;;;;8.40;6.90;;;5.00;51.70;;;;;;5032207;28;20532;-80
2023/12/04 10:54:47;;;;;;;10.00;6.93;;;5.20;51.30;;;;;;5030481;28;20223;-82
2023/12/04 10:57:21;;;;;;;9.63;6.53;;;5.30;48.10;;;;;;5030640;28;20881;-81
2023/12/04 10:59:48;;;;;;;8.47;6.47;;;5.10;46.00;;;;;;5032127;28;20174;-81
2023/12/04 11:02:21;;;;;;;9.23;6.20;;;5.20;49.00;;;;;;5031790;28;20175;-80
2023/12/04 11:04:50;;;;;;;8.43;6.57;;;5.10;50.30;;;;;;5031025;28;20170;-81
2023/12/04 11:07:19;;;;;;;8.60;6.13;;;5.10;53.00;;;;;;5032444;28;20630;-82
2023/12/04 11:09:48;;;;;;;9.23;5.70;;;5.30;54.50;;;;;;5030673;28;20299;-81
2023/12/04 11:12:21;;;;;;;8.97;6.90;;;5.30;51.70;;;;;;5030391;28;20185;-81
2023/12/04 11:14:53;;;;;;;9.70;6.77;;;5.30;52.20;;;;;;5034238;28;20711;-81
2023/12/04 11:17:20;;;;;;;7.27;5.77;;;5.50;48.00;;;;;;5034491;28;20183;-81
2023/12/04 11:20:16;;;;;;;9.37;6.33;;;5.50;39.00;;;;;;5034638;28;20224;-82
2023/12/04 11:22:45;;;;;;;9.33;6.50;;;5.60;38.00;;;;;;5034849;28;20193;-82
2023/12/04 11:25:12;;;;;;;8.43;6.30;;;5.60;35.50;;;;;;5035899;28;20166;-81
2023/12/04 11:27:39;;;;;;;8.83;6.00;;;5.60;34.00;;;;;;5034721;28;20174;-80
2023/12/04 11:30:06;;;;;;;8.67;5.97;;;5.50;34.20;;;;;;5034449;28;20625;-80
2023/12/04 11:32:43;;;;;;;7.40;5.50;;;5.60;37.00;;;;;;5034835;28;20182;-80
2023/12/04 11:35:14;;;;;;;7.83;6.07;;;5.60;33.70;;;;;;5034455;28;20165;-80
2023/12/04 11:37:40;;;;;;;7.33;5.53;;;5.70;31.10;;;;;;5034344;28;20175;-81
2023/12/04 11:40:07;;;;;;;7.13;5.50;;;5.80;28.50;;;;;;5034129;28;20644;-81
2023/12/04 11:42:33;;;;;;;7.27;5.60;;;5.60;24.30;;;;;;5034391;28;20181;-81
2023/12/04 11:44:59;;;;;;;8.97;6.10;;;5.50;26.90;;;;;;5034592;28;20227;-81
2023/12/04 11:47:25;;;;;;;7.43;5.83;;;5.60;29.30;;;;;;5033815;28;20537;-81
2023/12/04 11:49:50;;;;;;;7.77;5.17;;;5.60;29.40;;;;;;5034087;28;20177;-81
2023/12/04 11:52:16;;;;;;;8.43;5.50;;;5.70;28.80;;;;;;5035304;28;20192;-81
2023/12/04 11:55:05;;;;;;;8.43;5.90;;;5.60;28.90;;;;;;5035005;28;20178;-80
2023/12/04 11:57:44;;;;;;;9.80;5.10;;;5.60;28.60;;;;;;5035738;28;20165;-81
2023/12/04 12:00:19;;;;;;;6.13;4.30;;;5.60;27.10;;;;;;5035768;28;20205;-81
2023/12/04 12:02:54;;;;;;;6.83;5.30;;;5.70;26.30;;;;;;5035357;28;20177;-80
2023/12/04 12:05:21;;;;;;;6.87;4.73;;;5.80;23.70;;;;;;5034309;28;20624;-81
2023/12/04 12:07:47;;;;;;;6.67;5.07;;;5.80;21.20;;;;;;5035118;28;20174;-81
2023/12/04 12:10:13;;;;;;;7.67;5.33;;;5.70;21.90;;;;;;5033316;28;20253;-82
2023/12/04 12:12:43;;;;;;;6.80;5.20;;;5.80;20.40;;;;;;5033798;28;20178;-81
2023/12/04 12:15:12;;;;;;;7.00;5.10;;;5.90;18.20;;;;;;5034817;28;20173;-81
2023/12/04 12:17:39;;;;;;;7.90;5.77;;;5.90;15.40;;;;;;5033582;28;20181;-82
2023/12/04 12:20:14;;;;;;;6.77;5.03;;;6.00;13.70;;;;;;5034845;28;20178;-80
2023/12/04 12:22:43;;;;;;;5.67;4.77;;;5.90;15.20;;;;;;5033491;28;20307;-81
2023/12/04 12:25:10;;;;;;;8.80;5.20;;;5.90;15.70;;;;;;5033045;28;20174;-81
2023/12/04 12:27:36;;;;;;;7.50;5.07;;;5.90;16.40;;;;;;5034576;28;20273;-81
2023/12/04 12:30:04;;;;;;;6.70;4.97;;;6.00;18.20;;;;;;5033417;28;20188;-82
2023/12/04 12:32:34;;;;;;;6.57;4.93;;;5.90;14.90;;;;;;5033320;28;20263;-81
2023/12/04 12:35:00;;;;;;;8.30;5.00;;;6.00;18.20;;;;;;5033061;28;20181;-81
2023/12/04 12:37:26;;;;;;;8.83;5.60;;;6.00;20.20;;;;;;5033102;28;20177;-81
2023/12/04 12:39:52;;;;;;;5.77;4.47;;;6.10;20.90;;;;;;5033098;28;20288;-81
2023/12/04 12:42:25;;;;;;;12.07;5.33;;;6.00;19.60;;;;;;5034404;28;20178;-81
2023/12/04 12:44:51;;;;;;;7.67;5.73;;;6.10;21.50;;;;;;5033144;28;20247;-80
2023/12/04 12:47:17;;;;;;;8.90;5.43;;;6.10;21.80;;;;;;5033223;28;20182;-82
2023/12/04 12:49:44;;;;;;;9.47;5.00;;;6.10;23.20;;;;;;5032811;28;20323;-81
2023/12/04 12:52:10;;;;;;;5.77;4.47;;;6.10;23.80;;;;;;5032714;28;20197;-82
2023/12/04 12:54:38;;;;;;;7.03;4.90;;;5.90;26.40;;;;;;5032902;28;20181;-81
2023/12/04 12:57:03;;;;;;;5.60;4.57;;;6.10;28.40;;;;;;5032460;28;20269;-81